Time;durP1;ratioP1;P1;durP2;ratioP2;P2;SDS_P1;SDS_P2;PMS_P1;PMS_P2;Temp;Humidity;BMP_temperature;BMP_pressure;BME280_temperature;BME280_humidity;BME280_pressure;Samples;Min_cycle;Max_cycle;Signal;HPM_P1;HPM_P2
2023/06/24 00:01:33;;;;;;;6.72;6.05;;;24.50;61.60;;;;;;3972868;29;20415;-60
2023/06/24 00:04:18;;;;;;;6.65;6.00;;;24.50;61.60;;;;;;3972835;29;20510;-60
2023/06/24 00:07:00;;;;;;;8.00;7.13;;;24.50;61.70;;;;;;3972397;29;20521;-60
2023/06/24 00:10:03;;;;;;;8.07;7.30;;;24.50;61.60;;;;;;3972013;29;20057;-61
2023/06/24 00:12:52;;;;;;;6.85;6.15;;;24.50;61.60;;;;;;3972051;29;20161;-60
2023/06/24 00:15:45;;;;;;;9.70;8.02;;;24.50;61.70;;;;;;3972731;29;20383;-59
2023/06/24 00:19:00;;;;;;;9.80;7.47;;;24.50;61.80;;;;;;3972032;29;20505;-59
2023/06/24 00:21:53;;;;;;;8.05;7.25;;;24.50;61.70;;;;;;3972629;29;20154;-59
2023/06/24 00:24:39;;;;;;;8.68;7.78;;;24.40;61.70;;;;;;3971376;29;20110;-59
2023/06/24 00:27:23;;;;;;;9.13;7.65;;;24.40;61.70;;;;;;3972234;29;20192;-59
2023/06/24 00:30:10;;;;;;;8.60;7.68;;;24.40;61.80;;;;;;3961539;29;20200;-59
2023/06/24 00:32:52;;;;;;;8.73;7.47;;;24.40;61.80;;;;;;3971498;29;20411;-60
2023/06/24 00:35:46;;;;;;;8.30;7.60;;;24.40;61.90;;;;;;3972254;29;20070;-59
2023/06/24 00:38:32;;;;;;;11.43;7.68;;;24.40;61.90;;;;;;3960663;29;20054;-59
2023/06/24 00:41:20;;;;;;;8.55;7.75;;;24.40;61.90;;;;;;3961613;29;20216;-61
2023/06/24 00:44:05;;;;;;;7.57;6.88;;;24.40;62.10;;;;;;3972009;29;20062;-61
2023/06/24 00:46:49;;;;;;;9.57;7.63;;;24.30;61.90;;;;;;3971784;29;20510;-59
2023/06/24 00:49:37;;;;;;;;;;;24.30;61.90;;;;;;3961087;29;20073;-60
2023/06/24 00:52:18;;;;;;;8.07;7.25;;;24.30;62.80;;;;;;3972062;29;20393;-60
2023/06/24 00:55:02;;;;;;;9.68;8.13;;;24.30;61.90;;;;;;3971326;29;20598;-59
2023/06/24 00:57:45;;;;;;;9.20;7.65;;;24.30;62.00;;;;;;3972046;29;20059;-60
2023/06/24 01:00:28;;;;;;;9.55;8.57;;;24.30;62.80;;;;;;3971195;29;20057;-60
2023/06/24 01:03:13;;;;;;;9.68;7.93;;;24.30;62.00;;;;;;3957273;29;20058;-59
2023/06/24 01:05:56;;;;;;;8.65;7.82;;;24.30;61.90;;;;;;3946243;29;20061;-60
2023/06/24 01:08:42;;;;;;;9.65;8.60;;;24.20;61.90;;;;;;3971339;29;20126;-60
2023/06/24 01:11:28;;;;;;;10.15;7.72;;;24.30;61.90;;;;;;3971681;29;20069;-59
2023/06/24 01:14:10;;;;;;;8.85;7.78;;;24.30;62.00;;;;;;3970943;29;20196;-61
2023/06/24 01:17:05;;;;;;;8.90;7.78;;;24.20;61.90;;;;;;3971519;29;20524;-59
2023/06/24 01:20:03;;;;;;;9.27;8.38;;;24.30;61.90;;;;;;3971548;29;20875;-59
2023/06/24 01:23:21;;;;;;;10.30;8.73;;;24.20;61.80;;;;;;3955711;29;20062;-59
2023/06/24 01:26:53;;;;;;;10.90;9.57;;;24.20;61.80;;;;;;3945321;29;20137;-61
2023/06/24 01:30:33;;;;;;;9.30;8.48;;;24.20;61.80;;;;;;3971139;29;20199;-59
2023/06/24 01:33:27;;;;;;;10.52;9.50;;;24.20;62.00;;;;;;3971001;29;20054;-60
2023/06/24 01:36:13;;;;;;;10.80;9.80;;;24.20;62.10;;;;;;3970924;29;20054;-60
2023/06/24 01:39:00;;;;;;;12.77;10.30;;;24.10;62.00;;;;;;3960091;29;20050;-60
2023/06/24 01:41:55;;;;;;;9.70;8.82;;;24.10;62.00;;;;;;3971499;29;20053;-61
2023/06/24 01:44:41;;;;;;;11.00;9.77;;;24.10;62.00;;;;;;3971200;29;20669;-60
2023/06/24 01:47:34;;;;;;;;;;;24.10;62.10;;;;;;3971967;29;20054;-59
2023/06/24 01:50:34;;;;;;;11.93;10.07;;;24.10;62.10;;;;;;3970862;29;20449;-59
2023/06/24 01:53:22;;;;;;;11.68;10.48;;;24.10;62.30;;;;;;3971099;29;20066;-60
2023/06/24 01:56:07;;;;;;;11.10;9.90;;;24.10;62.30;;;;;;3970672;29;20196;-60
2023/06/24 01:59:05;;;;;;;10.90;9.27;;;24.10;62.40;;;;;;3971038;29;20485;-59
2023/06/24 02:01:52;;;;;;;10.73;9.70;;;24.00;62.40;;;;;;3959628;29;20439;-60
2023/06/24 02:04:39;;;;;;;11.85;10.52;;;24.00;62.40;;;;;;3970818;29;20099;-59
2023/06/24 02:07:29;;;;;;;10.68;9.48;;;24.00;62.50;;;;;;3970279;29;20506;-59
2023/06/24 02:10:15;;;;;;;9.75;8.75;;;24.00;62.50;;;;;;3956617;29;20061;-60
2023/06/24 02:13:04;;;;;;;10.80;9.02;;;24.00;62.60;;;;;;3971441;29;20407;-62
2023/06/24 02:16:10;;;;;;;9.18;8.30;;;24.00;62.50;;;;;;3970936;29;20110;-61
2023/06/24 02:19:05;;;;;;;9.95;9.05;;;24.00;62.50;;;;;;3970858;29;20130;-61
2023/06/24 02:21:48;;;;;;;8.30;7.50;;;24.00;62.60;;;;;;3970526;29;20073;-62
2023/06/24 02:24:36;;;;;;;8.40;7.70;;;24.00;62.50;;;;;;3971140;29;20067;-61
2023/06/24 02:27:21;;;;;;;7.07;6.43;;;24.00;62.40;;;;;;3971040;29;20078;-62
2023/06/24 02:30:58;;;;;;;8.52;7.72;;;23.90;62.50;;;;;;3956739;29;20046;-61
2023/06/24 02:33:52;;;;;;;8.95;7.97;;;23.90;62.00;;;;;;3970765;29;20054;-59
2023/06/24 02:36:42;;;;;;;7.63;6.93;;;23.90;62.30;;;;;;3970562;29;20065;-59
2023/06/24 02:39:37;;;;;;;7.72;7.03;;;23.90;62.30;;;;;;3970239;29;20053;-60
2023/06/24 02:42:31;;;;;;;7.68;7.07;;;23.90;62.30;;;;;;3970632;29;20062;-60
2023/06/24 02:45:21;;;;;;;7.93;7.32;;;23.90;62.10;;;;;;3969310;29;20070;-58
2023/06/24 02:48:04;;;;;;;8.75;7.95;;;23.90;62.30;;;;;;3950881;29;20054;-58
2023/06/24 02:50:50;;;;;;;9.50;8.63;;;23.90;62.30;;;;;;3958634;29;20071;-60
2023/06/24 02:53:33;;;;;;;10.18;9.18;;;23.90;62.20;;;;;;3958686;29;20082;-59
2023/06/24 02:56:24;;;;;;;12.13;11.02;;;23.80;62.30;;;;;;3959021;29;20159;-58
2023/06/24 02:59:13;;;;;;;12.35;10.90;;;23.80;62.40;;;;;;3973140;29;20056;-60
2023/06/24 03:02:06;;;;;;;11.32;10.23;;;23.80;62.60;;;;;;3961251;29;20406;-59
2023/06/24 03:04:57;;;;;;;10.23;9.30;;;23.80;62.50;;;;;;3972782;29;20065;-59
2023/06/24 03:07:40;;;;;;;11.02;9.45;;;23.80;62.50;;;;;;3973457;29;20145;-60
2023/06/24 03:10:25;;;;;;;12.65;10.52;;;23.80;62.40;;;;;;3973062;29;20472;-59
2023/06/24 03:13:13;;;;;;;11.60;10.32;;;23.80;62.40;;;;;;3962248;29;20069;-60
2023/06/24 03:16:03;;;;;;;10.93;9.73;;;23.80;62.40;;;;;;3962190;29;20058;-59
2023/06/24 03:18:53;;;;;;;11.48;9.95;;;23.80;62.50;;;;;;3972238;29;20067;-60
2023/06/24 03:21:36;;;;;;;11.02;9.85;;;23.70;62.40;;;;;;3962466;29;20061;-60
2023/06/24 03:24:27;;;;;;;10.38;9.15;;;23.80;62.50;;;;;;3958046;29;20209;-59
2023/06/24 03:27:57;;;;;;;11.63;9.95;;;23.80;62.40;;;;;;3958363;29;20080;-59
2023/06/24 03:31:23;;;;;;;9.70;8.70;;;23.70;62.10;;;;;;3942753;30;20066;-59
2023/06/24 03:34:04;;;;;;;10.77;9.70;;;23.70;61.90;;;;;;3935109;29;20066;-60
2023/06/24 03:36:46;;;;;;;11.55;9.15;;;23.70;62.30;;;;;;3947089;29;20062;-60
2023/06/24 03:39:32;;;;;;;11.88;9.82;;;23.70;62.20;;;;;;3947711;30;20059;-61
2023/06/24 03:42:13;;;;;;;12.65;9.90;;;23.60;62.10;;;;;;3958473;30;20507;-60
2023/06/24 03:44:57;;;;;;;11.30;10.10;;;23.60;62.20;;;;;;3957813;29;20062;-60
2023/06/24 03:47:49;;;;;;;11.18;9.70;;;23.60;62.30;;;;;;3936403;29;20197;-60
2023/06/24 03:50:32;;;;;;;10.75;9.63;;;23.60;62.30;;;;;;3965939;29;20529;-59
2023/06/24 03:53:16;;;;;;;11.88;10.70;;;23.60;62.40;;;;;;3957568;29;20058;-61
2023/06/24 03:55:59;;;;;;;10.95;9.88;;;23.60;62.60;;;;;;3956227;29;20584;-61
2023/06/24 03:58:50;;;;;;;11.85;9.60;;;23.60;62.80;;;;;;3945265;29;20692;-62
2023/06/24 04:01:31;;;;;;;10.75;9.25;;;23.60;62.80;;;;;;3966189;29;20468;-60
2023/06/24 04:04:18;;;;;;;10.55;9.50;;;23.60;62.80;;;;;;3957363;29;20054;-60
2023/06/24 04:07:01;;;;;;;11.05;9.82;;;23.60;62.90;;;;;;3957025;29;20196;-60
2023/06/24 04:09:44;;;;;;;11.32;9.70;;;23.60;62.90;;;;;;3957522;29;20058;-60
2023/06/24 04:12:28;;;;;;;10.75;9.63;;;23.60;63.00;;;;;;3957700;29;20063;-61
2023/06/24 04:15:13;;;;;;;9.98;9.02;;;23.60;63.20;;;;;;3935550;29;20054;-60
2023/06/24 04:18:06;;;;;;;12.95;10.13;;;23.60;63.20;;;;;;3942162;30;20078;-60
2023/06/24 04:20:53;;;;;;;11.23;9.20;;;23.60;63.40;;;;;;3942893;30;20808;-61
2023/06/24 04:23:37;;;;;;;11.00;9.80;;;23.50;63.30;;;;;;3947345;30;20185;-61
2023/06/24 04:26:36;;;;;;;9.68;8.77;;;23.50;63.40;;;;;;3948684;30;20066;-60
2023/06/24 04:29:18;;;;;;;10.38;9.32;;;23.50;63.60;;;;;;3941712;30;20103;-61
2023/06/24 04:32:09;;;;;;;12.00;9.48;;;23.50;63.60;;;;;;3932840;30;20059;-61
2023/06/24 04:34:53;;;;;;;9.73;8.82;;;23.50;63.60;;;;;;3942571;30;20078;-61
2023/06/24 04:37:39;;;;;;;10.10;9.00;;;23.50;63.70;;;;;;3943110;30;20054;-59
2023/06/24 04:40:22;;;;;;;9.98;9.00;;;23.50;64.50;;;;;;3957411;29;20507;-61
2023/06/24 04:43:03;;;;;;;10.02;8.20;;;23.50;64.60;;;;;;3946317;30;20061;-61
2023/06/24 04:45:47;;;;;;;9.40;8.48;;;23.50;63.70;;;;;;3957124;30;20059;-61
2023/06/24 04:48:29;;;;;;;9.18;8.27;;;23.50;63.80;;;;;;3957314;30;20096;-61
2023/06/24 05:00:15;;;;;;;8.52;7.43;;;23.60;63.50;;;;;;4559304;24;20042;-53
2023/06/24 05:02:55;;;;;;;8.48;7.43;;;23.60;63.40;;;;;;4018108;29;20125;-60
2023/06/24 05:05:36;;;;;;;9.60;6.70;;;23.60;63.40;;;;;;4016769;29;20385;-60
2023/06/24 05:08:18;;;;;;;8.50;7.63;;;23.60;64.30;;;;;;4017395;29;20064;-59
2023/06/24 05:10:58;;;;;;;8.57;7.63;;;23.60;63.30;;;;;;4009604;29;20052;-60
2023/06/24 05:13:41;;;;;;;9.48;7.95;;;23.60;63.20;;;;;;4017437;29;20093;-60
2023/06/24 05:16:23;;;;;;;7.78;6.97;;;23.60;63.30;;;;;;4017253;29;20137;-54
2023/06/24 05:19:04;;;;;;;8.50;7.65;;;23.70;63.90;;;;;;4016097;29;20100;-54
2023/06/24 05:21:45;;;;;;;7.55;6.75;;;23.70;63.90;;;;;;4012834;29;20210;-55
2023/06/24 05:24:26;;;;;;;7.65;6.82;;;23.70;63.70;;;;;;4016664;29;20064;-56
2023/06/24 05:27:08;;;;;;;9.52;6.90;;;23.70;63.60;;;;;;4032427;29;20404;-56
2023/06/24 05:29:48;;;;;;;9.63;7.50;;;23.70;63.40;;;;;;4001289;29;20061;-56
2023/06/24 05:32:30;;;;;;;7.57;6.78;;;23.70;63.30;;;;;;4016716;29;20061;-56
2023/06/24 05:35:12;;;;;;;11.23;7.50;;;23.70;63.20;;;;;;4017009;29;20521;-56
2023/06/24 05:37:53;;;;;;;7.65;7.00;;;23.70;63.20;;;;;;4001420;29;20062;-54
2023/06/24 05:40:34;;;;;;;9.07;7.50;;;23.80;63.10;;;;;;4020993;29;20198;-54
2023/06/24 05:43:15;;;;;;;8.90;7.50;;;23.80;63.00;;;;;;4011199;29;20073;-55
2023/06/24 05:45:56;;;;;;;9.63;7.40;;;23.90;62.80;;;;;;3982978;29;20048;-56
2023/06/24 05:48:38;;;;;;;8.43;7.05;;;23.90;62.50;;;;;;4001444;29;20064;-54
2023/06/24 05:51:19;;;;;;;8.00;7.32;;;24.00;62.20;;;;;;4012985;29;20117;-52
2023/06/24 05:54:01;;;;;;;9.90;8.02;;;24.00;62.10;;;;;;4001503;29;20113;-55
2023/06/24 05:56:42;;;;;;;9.48;7.45;;;24.10;61.90;;;;;;4001331;29;20056;-56
2023/06/24 05:59:23;;;;;;;9.13;7.40;;;24.10;61.90;;;;;;4002417;29;20069;-60
2023/06/24 06:02:04;;;;;;;;;;;24.10;61.80;;;;;;4001815;29;20065;-60
2023/06/24 06:04:46;;;;;;;10.63;8.70;;;24.10;61.80;;;;;;4001483;29;19935;-57
2023/06/24 06:07:27;;;;;;;9.48;7.93;;;24.10;62.10;;;;;;4001298;29;20354;-57
2023/06/24 06:10:09;;;;;;;11.90;8.07;;;24.10;62.00;;;;;;3994816;29;20064;-59
2023/06/24 06:12:50;;;;;;;8.77;7.88;;;24.30;62.10;;;;;;4001253;29;20060;-59
2023/06/24 06:15:32;;;;;;;8.15;7.32;;;24.30;61.90;;;;;;4008793;29;20346;-59
2023/06/24 06:18:13;;;;;;;;;;;24.30;61.50;;;;;;4018983;29;20489;-59
2023/06/24 06:20:55;;;;;;;8.88;7.82;;;24.40;61.40;;;;;;4015091;29;20029;-59
2023/06/24 06:23:36;;;;;;;7.90;7.15;;;24.50;61.20;;;;;;4004082;29;20090;-57
2023/06/24 06:26:17;;;;;;;8.68;7.55;;;24.50;61.00;;;;;;4000483;29;20076;-59
2023/06/24 06:28:58;;;;;;;15.05;7.75;;;24.50;60.80;;;;;;4029613;29;20471;-59
2023/06/24 06:31:39;;;;;;;;;;;24.60;60.50;;;;;;4023025;29;20056;-59
2023/06/24 06:34:20;;;;;;;6.97;6.47;;;24.70;60.20;;;;;;4004130;29;19936;-59
2023/06/24 06:37:02;;;;;;;8.63;6.78;;;24.80;59.90;;;;;;4014596;29;20069;-59
2023/06/24 06:39:43;;;;;;;8.02;7.22;;;24.80;59.80;;;;;;4019495;29;20059;-59
2023/06/24 06:42:24;;;;;;;7.88;7.10;;;24.80;59.70;;;;;;4025254;29;20692;-59
2023/06/24 06:45:06;;;;;;;7.50;6.78;;;24.80;59.70;;;;;;4021103;29;20508;-59
2023/06/24 06:47:47;;;;;;;8.32;7.45;;;24.80;59.70;;;;;;4018724;29;20060;-59
2023/06/24 06:50:28;;;;;;;10.05;7.28;;;24.80;59.70;;;;;;4016219;29;20068;-59
2023/06/24 06:53:10;;;;;;;7.03;6.32;;;24.80;59.70;;;;;;4018306;29;20380;-59
2023/06/24 06:55:51;;;;;;;6.93;6.20;;;24.80;60.00;;;;;;4018025;29;20060;-59
2023/06/24 06:58:32;;;;;;;8.60;6.82;;;24.70;60.10;;;;;;4018911;29;20121;-59
2023/06/24 07:01:14;;;;;;;10.15;7.22;;;24.70;60.30;;;;;;3994082;29;20401;-59
2023/06/24 07:03:55;;;;;;;;;;;24.70;61.20;;;;;;4004405;29;20061;-59
2023/06/24 07:06:36;;;;;;;6.88;6.10;;;24.70;60.30;;;;;;4003426;29;20343;-59
2023/06/24 07:09:20;;;;;;;6.50;5.78;;;24.70;60.40;;;;;;4003009;29;20109;-60
2023/06/24 07:12:01;;;;;;;6.38;5.75;;;24.60;60.60;;;;;;3988280;29;20130;-59
2023/06/24 07:14:42;;;;;;;8.23;6.47;;;24.70;60.80;;;;;;3987890;29;20069;-59
2023/06/24 07:17:23;;;;;;;8.93;6.95;;;24.60;60.80;;;;;;3977082;29;20065;-59
2023/06/24 07:20:04;;;;;;;;;;;24.60;60.70;;;;;;3990953;29;20088;-59
2023/06/24 07:22:45;;;;;;;7.82;6.22;;;24.70;60.80;;;;;;3991755;29;19931;-59
2023/06/24 07:25:28;;;;;;;6.40;5.80;;;24.60;60.90;;;;;;3988385;29;20073;-62
2023/06/24 07:28:10;;;;;;;8.07;6.85;;;24.70;61.20;;;;;;3991600;29;20056;-63
2023/06/24 07:30:51;;;;;;;6.78;6.13;;;24.70;61.20;;;;;;4002934;29;20064;-64
2023/06/24 07:33:32;;;;;;;9.65;7.30;;;24.70;61.20;;;;;;4002745;29;20065;-61
2023/06/24 07:36:14;;;;;;;9.43;6.82;;;24.70;62.10;;;;;;4003195;29;20065;-62
2023/06/24 07:38:55;;;;;;;6.72;6.13;;;24.70;61.50;;;;;;3981815;29;20057;-63
2023/06/24 07:41:37;;;;;;;;;;;24.70;61.50;;;;;;4002417;29;20064;-64
2023/06/24 07:44:19;;;;;;;9.55;7.32;;;24.70;61.40;;;;;;4002743;29;20068;-64
2023/06/24 07:47:00;;;;;;;8.18;7.38;;;24.80;61.40;;;;;;4003064;29;20060;-63
2023/06/24 07:49:41;;;;;;;;;;;24.70;61.30;;;;;;3988120;29;20090;-64
2023/06/24 07:52:22;;;;;;;11.45;8.63;;;24.70;61.30;;;;;;3987452;29;19936;-64
2023/06/24 07:55:03;;;;;;;9.15;7.88;;;24.80;61.10;;;;;;4001369;29;20065;-64
2023/06/24 07:57:47;;;;;;;9.82;8.80;;;24.80;61.00;;;;;;3989101;29;20053;-64
2023/06/24 08:00:28;;;;;;;10.23;8.90;;;24.80;60.90;;;;;;3992918;29;20057;-63
2023/06/24 08:03:09;;;;;;;10.30;9.30;;;24.80;61.70;;;;;;4003210;29;20204;-64
2023/06/24 08:05:51;;;;;;;12.05;9.77;;;24.90;60.70;;;;;;4011125;29;20170;-64
2023/06/24 08:08:31;;;;;;;10.07;8.50;;;24.90;60.70;;;;;;4004178;29;20108;-63
2023/06/24 08:11:12;;;;;;;12.38;8.85;;;24.90;60.70;;;;;;4018039;29;20060;-63
2023/06/24 08:13:54;;;;;;;10.48;8.65;;;25.00;60.70;;;;;;4002713;29;20485;-64
2023/06/24 08:16:35;;;;;;;11.20;8.88;;;25.00;61.60;;;;;;4003145;29;20065;-64
2023/06/24 08:19:17;;;;;;;10.23;8.70;;;25.00;61.60;;;;;;4010186;29;20065;-64
2023/06/24 08:21:57;;;;;;;10.63;8.82;;;25.00;60.50;;;;;;4018007;29;20602;-64
2023/06/24 08:24:38;;;;;;;9.23;7.43;;;25.00;60.40;;;;;;4017708;29;20186;-64
2023/06/24 08:27:19;;;;;;;12.23;8.70;;;25.00;60.30;;;;;;4017919;29;20060;-64
2023/06/24 08:30:01;;;;;;;;;;;25.10;60.20;;;;;;4017948;29;20109;-54
2023/06/24 08:32:42;;;;;;;7.28;6.57;;;25.10;60.10;;;;;;4015850;29;19935;-56
2023/06/24 08:35:23;;;;;;;7.35;6.07;;;25.10;60.10;;;;;;4017789;29;20057;-56
2023/06/24 08:38:04;;;;;;;5.90;5.30;;;25.10;59.80;;;;;;3995968;29;20128;-56
2023/06/24 08:40:47;;;;;;;6.68;5.55;;;25.20;59.60;;;;;;4007082;29;20053;-56
2023/06/24 08:43:28;;;;;;;6.47;5.88;;;25.20;59.30;;;;;;4017445;29;20138;-56
2023/06/24 08:46:12;;;;;;;7.63;5.90;;;25.20;59.10;;;;;;4016375;29;20060;-57
2023/06/24 08:49:00;;;;;;;6.15;5.55;;;25.20;58.90;;;;;;4005947;29;20133;-56
2023/06/24 08:51:44;;;;;;;7.85;6.13;;;25.20;58.90;;;;;;4002082;29;20072;-57
2023/06/24 08:54:26;;;;;;;6.43;5.50;;;25.20;58.70;;;;;;4001920;29;20179;-57
2023/06/24 08:57:14;;;;;;;6.28;5.63;;;25.30;58.40;;;;;;4002277;29;20065;-57
2023/06/24 08:59:55;;;;;;;7.03;5.75;;;25.30;58.30;;;;;;4002081;29;20655;-57
2023/06/24 09:02:39;;;;;;;6.72;5.75;;;25.30;58.20;;;;;;4001046;29;20057;-58
2023/06/24 09:05:20;;;;;;;7.35;5.63;;;25.30;58.10;;;;;;4015476;29;20069;-58
2023/06/24 09:08:01;;;;;;;11.25;6.03;;;25.30;58.00;;;;;;4017024;29;20214;-55
2023/06/24 09:10:43;;;;;;;8.32;6.43;;;25.30;58.00;;;;;;4016950;29;20048;-54
2023/06/24 09:13:34;;;;;;;9.57;6.97;;;25.40;58.20;;;;;;4016714;29;20088;-56
2023/06/24 09:16:15;;;;;;;;;;;25.40;58.20;;;;;;4013710;29;20105;-55
2023/06/24 09:18:57;;;;;;;7.88;6.25;;;25.50;59.00;;;;;;4004632;29;19933;-56
2023/06/24 09:21:38;;;;;;;7.72;6.93;;;25.50;58.20;;;;;;4017248;29;20053;-57
2023/06/24 09:24:20;;;;;;;7.38;6.47;;;25.60;58.20;;;;;;4016456;29;20064;-55
2023/06/24 09:27:01;;;;;;;9.85;7.13;;;25.60;58.10;;;;;;4014295;29;20416;-54
2023/06/24 09:29:43;;;;;;;8.82;5.88;;;25.60;58.80;;;;;;4023551;29;20056;-57
2023/06/24 09:32:30;;;;;;;7.03;6.10;;;25.70;58.10;;;;;;4016378;29;20052;-56
2023/06/24 09:35:12;;;;;;;8.23;6.32;;;25.70;58.10;;;;;;4005392;29;20080;-57
2023/06/24 09:37:54;;;;;;;6.65;5.90;;;25.80;58.00;;;;;;4017196;29;20105;-56
2023/06/24 09:40:37;;;;;;;7.03;5.78;;;25.80;57.90;;;;;;4016321;29;20072;-56
2023/06/24 09:43:21;;;;;;;8.93;5.75;;;25.80;57.70;;;;;;4001416;29;20109;-56
2023/06/24 09:46:03;;;;;;;9.10;6.10;;;25.90;57.80;;;;;;4001786;29;20053;-55
2023/06/24 09:48:44;;;;;;;6.53;5.15;;;25.90;58.40;;;;;;3992765;29;20059;-57
2023/06/24 09:51:26;;;;;;;5.97;5.43;;;25.90;57.60;;;;;;4001430;29;20512;-57
2023/06/24 09:54:08;;;;;;;5.45;4.95;;;26.00;57.60;;;;;;4001464;29;20183;-57
2023/06/24 09:56:50;;;;;;;5.35;4.78;;;26.00;57.50;;;;;;4001008;29;20400;-58
2023/06/24 09:59:33;;;;;;;5.63;4.68;;;26.00;57.30;;;;;;4009302;29;20052;-57
2023/06/24 10:02:17;;;;;;;4.97;3.53;;;26.00;57.30;;;;;;4016514;29;20448;-57
2023/06/24 10:04:57;;;;;;;5.18;4.68;;;26.10;57.20;;;;;;4004893;29;20069;-56
2023/06/24 10:07:41;;;;;;;6.15;4.57;;;26.10;57.10;;;;;;4016007;29;20061;-56
2023/06/24 10:10:22;;;;;;;4.32;3.88;;;26.10;57.00;;;;;;4016475;29;20141;-56
2023/06/24 10:13:03;;;;;;;4.80;4.40;;;26.10;57.60;;;;;;4016442;29;20048;-57
2023/06/24 10:15:44;;;;;;;4.70;4.30;;;26.10;56.70;;;;;;4012151;29;20056;-56
2023/06/24 10:18:44;;;;;;;5.75;4.85;;;26.20;56.60;;;;;;4004332;29;20064;-57
2023/06/24 10:21:45;;;;;;;5.53;4.80;;;26.20;56.50;;;;;;4016111;29;20056;-58
2023/06/24 10:24:31;;;;;;;5.43;4.93;;;26.20;56.60;;;;;;4015737;29;20063;-57
2023/06/24 10:27:16;;;;;;;5.95;4.97;;;26.20;56.50;;;;;;4015646;29;20125;-56
2023/06/24 10:29:57;;;;;;;7.78;4.93;;;26.20;56.50;;;;;;4015880;29;20056;-57
2023/06/24 10:32:42;;;;;;;;;;;26.30;56.60;;;;;;4016332;29;20064;-58
2023/06/24 10:35:25;;;;;;;4.47;4.07;;;26.30;56.50;;;;;;4015066;29;19931;-58
2023/06/24 10:38:11;;;;;;;6.13;4.00;;;26.30;56.10;;;;;;4016140;29;20052;-58
2023/06/24 10:40:54;;;;;;;4.57;4.15;;;26.30;56.20;;;;;;4016112;29;20503;-58
2023/06/24 10:43:40;;;;;;;4.68;3.88;;;26.40;56.00;;;;;;4001282;29;20065;-58
2023/06/24 10:46:21;;;;;;;4.85;4.00;;;26.40;55.60;;;;;;4004894;29;20508;-56
2023/06/24 10:49:02;;;;;;;;;;;26.40;55.50;;;;;;4016636;29;20053;-57
2023/06/24 10:51:42;;;;;;;4.47;4.07;;;26.40;55.60;;;;;;4015307;29;19935;-57
2023/06/24 10:54:24;;;;;;;6.97;4.30;;;26.40;55.50;;;;;;4002133;29;20406;-57
2023/06/24 10:57:07;;;;;;;5.65;3.97;;;26.50;55.20;;;;;;4031712;29;20060;-56
2023/06/24 10:59:49;;;;;;;5.07;4.18;;;26.50;54.70;;;;;;4016923;29;20077;-57
2023/06/24 11:02:29;;;;;;;;;;;26.50;54.60;;;;;;4016705;29;20121;-57
2023/06/24 11:05:10;;;;;;;4.13;3.78;;;26.50;54.50;;;;;;4016300;29;19934;-57
2023/06/24 11:07:51;;;;;;;3.67;3.30;;;26.50;54.30;;;;;;4012799;29;20064;-57
2023/06/24 11:10:32;;;;;;;4.25;3.85;;;26.50;54.20;;;;;;4019069;29;20056;-58
2023/06/24 11:13:15;;;;;;;6.22;3.90;;;26.60;54.10;;;;;;4019022;29;20124;-65
2023/06/24 11:16:01;;;;;;;3.90;3.60;;;26.60;53.90;;;;;;4006642;29;20061;-65
2023/06/24 11:18:43;;;;;;;6.90;3.30;;;26.70;53.90;;;;;;4003640;29;20061;-65
2023/06/24 11:21:30;;;;;;;4.40;4.00;;;26.70;53.80;;;;;;4003440;29;20526;-64
2023/06/24 11:24:11;;;;;;;4.60;4.20;;;26.70;54.30;;;;;;4002584;29;20393;-64
2023/06/24 11:26:52;;;;;;;;;;;26.70;53.50;;;;;;4018252;29;20495;-65
2023/06/24 11:29:35;;;;;;;4.10;3.67;;;26.80;53.70;;;;;;4004420;29;19981;-65
2023/06/24 11:32:16;;;;;;;4.03;3.72;;;26.70;53.50;;;;;;3991988;29;20195;-57
2023/06/24 11:34:56;;;;;;;4.30;3.80;;;26.80;53.20;;;;;;4005006;29;20129;-57
2023/06/24 11:37:38;;;;;;;10.88;3.70;;;26.80;53.20;;;;;;4013597;29;20230;-57
2023/06/24 11:40:20;;;;;;;3.53;3.33;;;26.80;53.10;;;;;;4003485;29;20566;-58
2023/06/24 11:43:02;;;;;;;3.97;3.70;;;26.80;53.30;;;;;;4002861;29;20623;-57
2023/06/24 11:45:49;;;;;;;4.60;4.20;;;26.80;53.30;;;;;;4016032;29;20134;-58
2023/06/24 11:48:30;;;;;;;3.60;3.30;;;26.80;53.10;;;;;;4018462;29;20064;-48
2023/06/24 11:51:13;;;;;;;;;;;26.90;53.10;;;;;;4018832;29;20048;-58
2023/06/24 11:53:59;;;;;;;5.30;3.20;;;26.90;53.30;;;;;;3991083;29;19931;-57
2023/06/24 11:56:41;;;;;;;3.63;3.40;;;26.90;53.40;;;;;;4003159;29;20056;-57
2023/06/24 11:59:25;;;;;;;3.25;2.88;;;26.90;53.40;;;;;;4003978;29;20057;-57
2023/06/24 12:02:07;;;;;;;8.27;3.95;;;26.90;53.30;;;;;;4007987;29;20057;-56
2023/06/24 12:04:49;;;;;;;3.60;3.30;;;26.90;53.40;;;;;;4033047;29;20087;-57
2023/06/24 12:07:30;;;;;;;3.78;3.50;;;27.00;53.40;;;;;;4028570;29;20075;-57
2023/06/24 12:10:11;;;;;;;3.75;3.45;;;26.90;53.10;;;;;;4018284;29;20110;-57
2023/06/24 12:12:53;;;;;;;3.83;3.50;;;27.00;53.20;;;;;;4018138;29;20491;-57
2023/06/24 12:15:33;;;;;;;;;;;27.00;53.20;;;;;;4018575;29;20064;-57
2023/06/24 12:18:16;;;;;;;3.78;3.42;;;27.00;53.30;;;;;;4023283;29;19950;-57
2023/06/24 12:20:56;;;;;;;5.57;3.80;;;27.00;53.20;;;;;;4017706;29;20060;-57
2023/06/24 12:23:37;;;;;;;;;;;27.00;53.20;;;;;;4003160;29;20072;-65
2023/06/24 12:26:18;;;;;;;3.83;3.60;;;26.90;53.30;;;;;;3996179;29;20023;-65
2023/06/24 12:29:00;;;;;;;6.00;3.72;;;27.00;53.40;;;;;;4002450;29;20098;-65
2023/06/24 12:31:41;;;;;;;3.80;3.50;;;26.90;53.60;;;;;;4002959;29;20060;-65
2023/06/24 12:34:23;;;;;;;;;;;26.90;53.60;;;;;;4002995;29;20528;-64
2023/06/24 12:37:05;;;;;;;3.85;3.55;;;26.90;54.50;;;;;;4005417;29;19959;-65
2023/06/24 12:39:47;;;;;;;4.57;4.15;;;26.90;53.90;;;;;;4017753;29;20065;-65
2023/06/24 12:42:28;;;;;;;6.20;4.18;;;26.90;54.20;;;;;;4017944;29;20065;-56
2023/06/24 12:45:10;;;;;;;5.80;3.90;;;26.90;54.40;;;;;;4017739;29;20075;-57
2023/06/24 12:47:51;;;;;;;4.30;3.85;;;26.90;54.20;;;;;;4017960;29;20219;-57
2023/06/24 12:50:34;;;;;;;4.05;3.75;;;26.90;54.20;;;;;;4017128;29;20059;-64
2023/06/24 12:53:15;;;;;;;6.75;3.63;;;26.90;54.40;;;;;;4002384;29;20109;-57
2023/06/24 12:55:56;;;;;;;;;;;27.00;54.60;;;;;;4002630;29;20064;-57
2023/06/24 12:58:37;;;;;;;4.28;3.92;;;27.00;54.50;;;;;;4002165;29;20399;-57
2023/06/24 13:01:18;;;;;;;5.50;3.70;;;27.00;54.40;;;;;;3995997;29;20056;-57
2023/06/24 13:03:59;;;;;;;5.07;3.60;;;27.00;54.30;;;;;;4007964;29;20930;-58
2023/06/24 13:06:42;;;;;;;4.10;3.70;;;27.00;54.60;;;;;;3991927;29;20052;-57
2023/06/24 13:09:23;;;;;;;3.45;3.17;;;27.00;54.10;;;;;;4014015;29;20185;-55
2023/06/24 13:12:04;;;;;;;3.83;3.50;;;27.00;54.10;;;;;;4002188;29;20070;-55
2023/06/24 13:14:45;;;;;;;3.80;3.50;;;27.00;54.10;;;;;;3990187;29;20052;-56
2023/06/24 13:17:26;;;;;;;4.50;3.83;;;27.00;54.00;;;;;;4001683;29;20072;-65
2023/06/24 13:20:07;;;;;;;;;;;27.00;53.90;;;;;;4004537;29;20061;-64
2023/06/24 13:22:49;;;;;;;4.97;3.85;;;27.00;54.00;;;;;;4017070;29;20084;-64
2023/06/24 13:25:31;;;;;;;6.90;4.97;;;27.10;53.80;;;;;;4016746;29;20405;-64
2023/06/24 13:28:12;;;;;;;10.52;6.53;;;27.10;54.00;;;;;;4016516;29;20056;-65
2023/06/24 13:30:54;;;;;;;;;;;27.10;55.00;;;;;;4016615;29;20060;-64
2023/06/24 13:33:35;;;;;;;9.80;7.03;;;27.20;56.80;;;;;;4017008;29;19930;-64
2023/06/24 13:36:31;;;;;;;9.65;6.82;;;27.20;56.70;;;;;;4017016;29;20057;-64
2023/06/24 13:39:13;;;;;;;8.38;6.97;;;27.20;57.60;;;;;;4015618;29;20060;-64
2023/06/24 13:41:54;;;;;;;8.75;6.60;;;27.20;58.00;;;;;;3992489;29;20125;-64
2023/06/24 13:44:35;;;;;;;7.25;6.55;;;27.20;58.60;;;;;;4001728;29;20105;-64
2023/06/24 13:47:15;;;;;;;;;;;27.20;58.90;;;;;;4006120;29;20095;-64
2023/06/24 13:49:58;;;;;;;9.43;6.72;;;27.20;59.20;;;;;;4026689;29;20292;-57
2023/06/24 13:52:39;;;;;;;7.35;6.40;;;27.10;59.30;;;;;;4016883;29;20056;-56
2023/06/24 13:55:22;;;;;;;8.95;6.15;;;27.10;59.60;;;;;;4016890;29;20422;-53
2023/06/24 13:58:03;;;;;;;6.07;5.47;;;27.10;59.90;;;;;;4016819;29;20084;-55
2023/06/24 14:00:44;;;;;;;;;;;27.10;60.10;;;;;;4016036;29;20517;-55
2023/06/24 14:03:24;;;;;;;8.73;6.32;;;27.00;60.30;;;;;;4014775;29;19934;-52
2023/06/24 14:06:06;;;;;;;10.13;6.40;;;27.00;60.70;;;;;;4001442;29;20061;-54
2023/06/24 14:08:47;;;;;;;;;;;27.00;60.90;;;;;;4001901;29;20049;-54
2023/06/24 14:11:29;;;;;;;10.80;7.25;;;27.00;60.60;;;;;;3999939;29;19935;-54
2023/06/24 14:14:10;;;;;;;7.40;6.07;;;27.00;60.50;;;;;;4015511;29;20178;-54
2023/06/24 14:16:51;;;;;;;8.82;6.63;;;26.90;60.30;;;;;;4000846;29;20053;-55
2023/06/24 14:19:32;;;;;;;;;;;26.90;60.70;;;;;;4001617;29;20049;-55
2023/06/24 14:22:13;;;;;;;8.13;6.25;;;26.90;60.60;;;;;;4013698;29;19934;-53
2023/06/24 14:24:54;;;;;;;11.98;8.25;;;26.90;61.20;;;;;;4020131;29;20139;-55
2023/06/24 14:27:36;;;;;;;10.88;7.05;;;27.00;60.40;;;;;;4016449;29;20564;-52
2023/06/24 14:30:17;;;;;;;11.15;6.45;;;27.00;61.20;;;;;;4016430;29;20068;-55